KMLS

Details ICAO KMLS (MLS)
Name Frank Wiley Fld
Region United States
Timezone America/Denver (UTC-7.0)
Plans Departing 6
Arriving 9
Stats Elevation 2,630 ft / 802 m (AMSL)
Location 46.427974° -105.886231°
Runways 2
Magnetic Variation 9.313° E
Sunrise 2017-12-12 14:39:36 UTC / 2017-12-12 07:39:36 Local
Sunset 2017-12-12 23:18:05 UTC / 2017-12-12 16:18:05 Local
Advertisement - Login to hide

Runways

ID Width Length Bearing (true) Bearing (mag) Surface Threshold Offset Overrun Length
04 75 ft / 23 m 5,672 ft / 1,729 m 51.83° 42.52° Asphalt 0 ft / 0 m 0 ft / 0 m
12 100 ft / 30 m 5,618 ft / 1,712 m 134.97° 125.66° Asphalt 0 ft / 0 m 0 ft / 0 m
22 75 ft / 23 m 5,672 ft / 1,729 m 231.85° 222.54° Asphalt 0 ft / 0 m 0 ft / 0 m
30 100 ft / 30 m 5,618 ft / 1,712 m 314.98° 305.67° Asphalt 0 ft / 0 m 0 ft / 0 m

Map

Weather


0- 5 10 15 20 25 30 35+ Temperature / ° C

Clouds and Precipitation
Forecast for 2017-12-12 18:00 UTC. Updated an hour ago

Ground ~20,000 ft ~40,000 ft Winds

METAR

KMLS 121753Z AUTO 21007KT 10SM CLR 07/M04 A3006 RMK AO2 SLP203 6//// T00671039 58018

TAF

KMLS 121729Z 1218/1318 VRB05KT P6SM SKC FM121900 27015KT P6SM SKC FM122100 30018G28KT P6SM SCT250 FM130300 31015KT P6SM SCT200 WS020/32045KT

Frequencies

Recorded 135.57 MHz ASOS
Unicom 123.00 MHz CTAF/UNICOM
Warning: Do not use this data for real-world aviation or navigation. No guarantee of current accuracy is given.